sensor_id;sensor_type;location;lat;lon;timestamp;temperature;humidity
3564;DHT22;1796;52.388;13.096;2023-04-24T00:00:14;10.00;99.90
3564;DHT22;1796;52.388;13.096;2023-04-24T00:02:44;10.10;99.90
3564;DHT22;1796;52.388;13.096;2023-04-24T00:05:13;10.10;99.90
3564;DHT22;1796;52.388;13.096;2023-04-24T00:07:40;10.20;99.90
3564;DHT22;1796;52.388;13.096;2023-04-24T00:10:08;10.20;99.90
3564;DHT22;1796;52.388;13.096;2023-04-24T00:12:35;10.20;99.90
3564;DHT22;1796;52.388;13.096;2023-04-24T00:15:03;10.20;99.90
3564;DHT22;1796;52.388;13.096;2023-04-24T00:17:32;10.20;99.90
3564;DHT22;1796;52.388;13.096;2023-04-24T00:19:59;10.30;99.90
3564;DHT22;1796;52.388;13.096;2023-04-24T00:22:28;10.30;99.90
3564;DHT22;1796;52.388;13.096;2023-04-24T00:24:55;10.30;99.90
3564;DHT22;1796;52.388;13.096;2023-04-24T00:27:22;10.30;99.90
3564;DHT22;1796;52.388;13.096;2023-04-24T00:29:49;10.30;99.90
3564;DHT22;1796;52.388;13.096;2023-04-24T00:32:16;10.40;99.90
3564;DHT22;1796;52.388;13.096;2023-04-24T00:34:44;10.40;99.90
3564;DHT22;1796;52.388;13.096;2023-04-24T00:37:11;10.40;99.90
3564;DHT22;1796;52.388;13.096;2023-04-24T00:39:38;10.50;99.90
3564;DHT22;1796;52.388;13.096;2023-04-24T00:42:05;10.40;99.90
3564;DHT22;1796;52.388;13.096;2023-04-24T00:44:33;10.40;99.90
3564;DHT22;1796;52.388;13.096;2023-04-24T00:47:00;10.50;99.90
3564;DHT22;1796;52.388;13.096;2023-04-24T00:49:28;10.50;99.90
3564;DHT22;1796;52.388;13.096;2023-04-24T00:51:56;10.40;99.90
3564;DHT22;1796;52.388;13.096;2023-04-24T00:54:24;10.40;99.90
3564;DHT22;1796;52.388;13.096;2023-04-24T00:56:51;10.40;99.90
3564;DHT22;1796;52.388;13.096;2023-04-24T00:59:18;10.40;99.90
3564;DHT22;1796;52.388;13.096;2023-04-24T01:01:45;10.30;99.90
3564;DHT22;1796;52.388;13.096;2023-04-24T01:04:13;10.20;99.90
3564;DHT22;1796;52.388;13.096;2023-04-24T01:06:43;10.20;99.90
3564;DHT22;1796;52.388;13.096;2023-04-24T01:09:12;10.20;99.90
3564;DHT22;1796;52.388;13.096;2023-04-24T01:11:41;10.20;99.90
3564;DHT22;1796;52.388;13.096;2023-04-24T01:14:09;10.20;99.90
3564;DHT22;1796;52.388;13.096;2023-04-24T01:16:36;10.20;99.90
3564;DHT22;1796;52.388;13.096;2023-04-24T01:19:04;10.10;99.90
3564;DHT22;1796;52.388;13.096;2023-04-24T01:21:34;10.10;99.90
3564;DHT22;1796;52.388;13.096;2023-04-24T01:24:03;10.10;99.90
3564;DHT22;1796;52.388;13.096;2023-04-24T01:26:31;10.10;99.90
3564;DHT22;1796;52.388;13.096;2023-04-24T01:28:58;10.10;99.90
3564;DHT22;1796;52.388;13.096;2023-04-24T01:31:24;10.00;99.90
3564;DHT22;1796;52.388;13.096;2023-04-24T01:33:51;10.00;99.90
3564;DHT22;1796;52.388;13.096;2023-04-24T01:36:19;10.00;99.90
3564;DHT22;1796;52.388;13.096;2023-04-24T01:38:46;9.90;99.90
3564;DHT22;1796;52.388;13.096;2023-04-24T01:41:14;9.90;99.90
3564;DHT22;1796;52.388;13.096;2023-04-24T01:43:42;9.90;99.90
3564;DHT22;1796;52.388;13.096;2023-04-24T01:46:09;9.80;99.90
3564;DHT22;1796;52.388;13.096;2023-04-24T01:48:36;9.90;99.90
3564;DHT22;1796;52.388;13.096;2023-04-24T01:51:03;9.80;99.90
3564;DHT22;1796;52.388;13.096;2023-04-24T01:53:30;9.80;99.90
3564;DHT22;1796;52.388;13.096;2023-04-24T01:55:57;9.80;99.90
3564;DHT22;1796;52.388;13.096;2023-04-24T01:58:25;9.80;99.90
3564;DHT22;1796;52.388;13.096;2023-04-24T02:00:53;9.80;99.90
3564;DHT22;1796;52.388;13.096;2023-04-24T02:03:22;9.80;99.90
3564;DHT22;1796;52.388;13.096;2023-04-24T02:05:49;10.00;99.90
3564;DHT22;1796;52.388;13.096;2023-04-24T02:08:16;9.90;99.90
3564;DHT22;1796;52.388;13.096;2023-04-24T02:10:43;9.90;99.90
3564;DHT22;1796;52.388;13.096;2023-04-24T02:13:10;9.90;99.90
3564;DHT22;1796;52.388;13.096;2023-04-24T02:15:38;9.90;99.90
3564;DHT22;1796;52.388;13.096;2023-04-24T02:18:05;9.80;99.90
3564;DHT22;1796;52.388;13.096;2023-04-24T02:20:32;9.80;99.90
3564;DHT22;1796;52.388;13.096;2023-04-24T02:23:02;9.80;99.90
3564;DHT22;1796;52.388;13.096;2023-04-24T02:25:28;9.80;99.90
3564;DHT22;1796;52.388;13.096;2023-04-24T02:27:55;9.80;99.90
3564;DHT22;1796;52.388;13.096;2023-04-24T02:30:22;9.80;99.90
3564;DHT22;1796;52.388;13.096;2023-04-24T02:32:50;9.80;99.90
3564;DHT22;1796;52.388;13.096;2023-04-24T02:35:17;9.90;99.90
3564;DHT22;1796;52.388;13.096;2023-04-24T02:37:44;9.90;99.90
3564;DHT22;1796;52.388;13.096;2023-04-24T02:40:11;9.90;99.90
3564;DHT22;1796;52.388;13.096;2023-04-24T02:42:38;10.00;99.90
3564;DHT22;1796;52.388;13.096;2023-04-24T02:45:06;10.00;99.90
3564;DHT22;1796;52.388;13.096;2023-04-24T02:47:33;10.00;99.90
3564;DHT22;1796;52.388;13.096;2023-04-24T02:50:01;10.00;99.90
3564;DHT22;1796;52.388;13.096;2023-04-24T02:52:28;10.10;99.90
3564;DHT22;1796;52.388;13.096;2023-04-24T02:54:55;10.00;99.90
3564;DHT22;1796;52.388;13.096;2023-04-24T02:57:22;10.00;99.90
3564;DHT22;1796;52.388;13.096;2023-04-24T02:59:49;10.00;99.90
3564;DHT22;1796;52.388;13.096;2023-04-24T03:02:16;10.10;99.90
3564;DHT22;1796;52.388;13.096;2023-04-24T03:04:43;10.10;99.90
3564;DHT22;1796;52.388;13.096;2023-04-24T03:07:11;10.10;99.90
3564;DHT22;1796;52.388;13.096;2023-04-24T03:09:38;10.10;99.90
3564;DHT22;1796;52.388;13.096;2023-04-24T03:12:05;10.20;99.90
3564;DHT22;1796;52.388;13.096;2023-04-24T03:14:31;10.20;99.90
3564;DHT22;1796;52.388;13.096;2023-04-24T03:16:58;10.20;99.90
3564;DHT22;1796;52.388;13.096;2023-04-24T03:19:25;10.20;99.90
3564;DHT22;1796;52.388;13.096;2023-04-24T03:21:52;10.20;99.90
3564;DHT22;1796;52.388;13.096;2023-04-24T03:24:20;10.20;99.90
3564;DHT22;1796;52.388;13.096;2023-04-24T03:26:48;10.20;99.90
3564;DHT22;1796;52.388;13.096;2023-04-24T03:29:14;10.30;99.90
3564;DHT22;1796;52.388;13.096;2023-04-24T03:31:41;10.20;99.90
3564;DHT22;1796;52.388;13.096;2023-04-24T03:34:08;10.30;99.90
3564;DHT22;1796;52.388;13.096;2023-04-24T03:36:35;10.30;99.90
3564;DHT22;1796;52.388;13.096;2023-04-24T03:39:02;10.30;99.90
3564;DHT22;1796;52.388;13.096;2023-04-24T03:41:30;10.30;99.90
3564;DHT22;1796;52.388;13.096;2023-04-24T03:43:57;10.30;99.90
3564;DHT22;1796;52.388;13.096;2023-04-24T03:46:24;10.30;99.90
3564;DHT22;1796;52.388;13.096;2023-04-24T03:48:51;10.30;99.90
3564;DHT22;1796;52.388;13.096;2023-04-24T03:51:18;10.30;99.90
3564;DHT22;1796;52.388;13.096;2023-04-24T03:53:45;10.30;99.90
3564;DHT22;1796;52.388;13.096;2023-04-24T03:56:11;10.30;99.90
3564;DHT22;1796;52.388;13.096;2023-04-24T03:58:40;10.30;99.90
3564;DHT22;1796;52.388;13.096;2023-04-24T04:01:07;10.20;99.90
3564;DHT22;1796;52.388;13.096;2023-04-24T04:03:33;10.20;99.90
3564;DHT22;1796;52.388;13.096;2023-04-24T04:06:00;10.10;99.90
3564;DHT22;1796;52.388;13.096;2023-04-24T04:08:27;10.10;99.90
3564;DHT22;1796;52.388;13.096;2023-04-24T04:10:54;10.00;99.90
3564;DHT22;1796;52.388;13.096;2023-04-24T04:13:21;9.90;99.90
3564;DHT22;1796;52.388;13.096;2023-04-24T04:15:49;9.90;99.90
3564;DHT22;1796;52.388;13.096;2023-04-24T04:18:16;9.80;99.90
3564;DHT22;1796;52.388;13.096;2023-04-24T04:20:43;9.80;99.90
3564;DHT22;1796;52.388;13.096;2023-04-24T04:23:10;9.80;99.90
3564;DHT22;1796;52.388;13.096;2023-04-24T04:25:36;9.80;99.90
3564;DHT22;1796;52.388;13.096;2023-04-24T04:28:03;9.80;99.90
3564;DHT22;1796;52.388;13.096;2023-04-24T04:30:31;9.80;99.90
3564;DHT22;1796;52.388;13.096;2023-04-24T04:32:59;9.80;99.90
3564;DHT22;1796;52.388;13.096;2023-04-24T04:35:26;9.90;99.90
3564;DHT22;1796;52.388;13.096;2023-04-24T04:37:53;9.90;99.90
3564;DHT22;1796;52.388;13.096;2023-04-24T04:40:21;10.00;99.90
3564;DHT22;1796;52.388;13.096;2023-04-24T04:42:48;10.10;99.90
3564;DHT22;1796;52.388;13.096;2023-04-24T04:45:18;10.10;99.90
3564;DHT22;1796;52.388;13.096;2023-04-24T04:47:46;10.20;99.90
3564;DHT22;1796;52.388;13.096;2023-04-24T04:50:14;10.30;99.90
3564;DHT22;1796;52.388;13.096;2023-04-24T04:52:42;10.40;99.90
3564;DHT22;1796;52.388;13.096;2023-04-24T04:55:09;10.60;99.90
3564;DHT22;1796;52.388;13.096;2023-04-24T04:57:36;11.00;99.90
3564;DHT22;1796;52.388;13.096;2023-04-24T05:00:04;11.30;99.90
3564;DHT22;1796;52.388;13.096;2023-04-24T05:02:32;11.40;99.90
3564;DHT22;1796;52.388;13.096;2023-04-24T05:04:59;11.50;99.90
3564;DHT22;1796;52.388;13.096;2023-04-24T05:07:27;11.60;99.90
3564;DHT22;1796;52.388;13.096;2023-04-24T05:09:54;11.70;99.90
3564;DHT22;1796;52.388;13.096;2023-04-24T05:12:21;11.80;99.90
3564;DHT22;1796;52.388;13.096;2023-04-24T05:14:48;11.80;99.90
3564;DHT22;1796;52.388;13.096;2023-04-24T05:17:15;12.10;99.90
3564;DHT22;1796;52.388;13.096;2023-04-24T05:19:42;12.20;99.90
3564;DHT22;1796;52.388;13.096;2023-04-24T05:22:09;12.30;99.90
3564;DHT22;1796;52.388;13.096;2023-04-24T05:24:38;12.50;99.90
3564;DHT22;1796;52.388;13.096;2023-04-24T05:27:05;12.80;99.90
3564;DHT22;1796;52.388;13.096;2023-04-24T05:29:32;13.00;99.90
3564;DHT22;1796;52.388;13.096;2023-04-24T05:32:00;13.10;99.90
3564;DHT22;1796;52.388;13.096;2023-04-24T05:34:27;13.30;99.90
3564;DHT22;1796;52.388;13.096;2023-04-24T05:36:54;13.50;99.90
3564;DHT22;1796;52.388;13.096;2023-04-24T05:39:20;13.60;99.90
3564;DHT22;1796;52.388;13.096;2023-04-24T05:41:49;13.70;99.90
3564;DHT22;1796;52.388;13.096;2023-04-24T05:44:15;13.60;99.90
3564;DHT22;1796;52.388;13.096;2023-04-24T05:46:42;13.80;99.90
3564;DHT22;1796;52.388;13.096;2023-04-24T05:49:09;14.00;99.90
3564;DHT22;1796;52.388;13.096;2023-04-24T05:51:36;14.20;99.90
3564;DHT22;1796;52.388;13.096;2023-04-24T05:54:04;14.40;99.90
3564;DHT22;1796;52.388;13.096;2023-04-24T05:56:31;14.50;99.90
3564;DHT22;1796;52.388;13.096;2023-04-24T05:59:00;14.40;99.90
3564;DHT22;1796;52.388;13.096;2023-04-24T06:01:26;14.40;99.90
3564;DHT22;1796;52.388;13.096;2023-04-24T06:03:53;14.50;99.90
3564;DHT22;1796;52.388;13.096;2023-04-24T06:06:20;14.60;99.90
3564;DHT22;1796;52.388;13.096;2023-04-24T06:08:47;15.00;99.90
3564;DHT22;1796;52.388;13.096;2023-04-24T06:11:14;15.70;99.90
3564;DHT22;1796;52.388;13.096;2023-04-24T06:13:41;16.30;99.90
3564;DHT22;1796;52.388;13.096;2023-04-24T06:16:10;16.50;99.90
3564;DHT22;1796;52.388;13.096;2023-04-24T06:18:37;17.20;99.90
3564;DHT22;1796;52.388;13.096;2023-04-24T06:21:04;17.90;99.90
3564;DHT22;1796;52.388;13.096;2023-04-24T06:23:31;18.30;99.90
3564;DHT22;1796;52.388;13.096;2023-04-24T06:25:59;18.70;99.90
3564;DHT22;1796;52.388;13.096;2023-04-24T06:28:26;18.80;99.90
3564;DHT22;1796;52.388;13.096;2023-04-24T06:30:53;19.20;99.90
3564;DHT22;1796;52.388;13.096;2023-04-24T06:33:21;18.60;99.90
3564;DHT22;1796;52.388;13.096;2023-04-24T06:35:48;17.80;99.90
3564;DHT22;1796;52.388;13.096;2023-04-24T06:38:15;17.40;99.90
3564;DHT22;1796;52.388;13.096;2023-04-24T06:40:42;17.40;99.90
3564;DHT22;1796;52.388;13.096;2023-04-24T06:43:09;17.60;99.90
3564;DHT22;1796;52.388;13.096;2023-04-24T06:45:36;17.30;99.90
3564;DHT22;1796;52.388;13.096;2023-04-24T06:48:05;17.20;99.90
3564;DHT22;1796;52.388;13.096;2023-04-24T06:50:33;16.80;99.90
3564;DHT22;1796;52.388;13.096;2023-04-24T06:53:00;16.70;99.90
3564;DHT22;1796;52.388;13.096;2023-04-24T06:55:27;16.80;99.90
3564;DHT22;1796;52.388;13.096;2023-04-24T06:57:54;16.80;99.90
3564;DHT22;1796;52.388;13.096;2023-04-24T07:00:21;16.90;99.90
3564;DHT22;1796;52.388;13.096;2023-04-24T07:02:49;17.10;99.90
3564;DHT22;1796;52.388;13.096;2023-04-24T07:05:16;17.10;99.90
3564;DHT22;1796;52.388;13.096;2023-04-24T07:07:47;17.40;99.90
3564;DHT22;1796;52.388;13.096;2023-04-24T07:10:15;17.50;99.90
3564;DHT22;1796;52.388;13.096;2023-04-24T07:12:42;17.80;99.90
3564;DHT22;1796;52.388;13.096;2023-04-24T07:15:09;18.60;99.90
3564;DHT22;1796;52.388;13.096;2023-04-24T07:17:37;19.40;99.90
3564;DHT22;1796;52.388;13.096;2023-04-24T07:20:09;19.90;99.90
3564;DHT22;1796;52.388;13.096;2023-04-24T07:22:37;19.90;99.90
3564;DHT22;1796;52.388;13.096;2023-04-24T07:25:05;20.40;99.90
3564;DHT22;1796;52.388;13.096;2023-04-24T07:27:34;21.20;99.90
3564;DHT22;1796;52.388;13.096;2023-04-24T07:30:01;21.00;99.90
3564;DHT22;1796;52.388;13.096;2023-04-24T07:32:29;21.10;99.90
3564;DHT22;1796;52.388;13.096;2023-04-24T07:34:56;21.60;99.90
3564;DHT22;1796;52.388;13.096;2023-04-24T07:37:23;21.60;99.90
3564;DHT22;1796;52.388;13.096;2023-04-24T07:39:50;22.20;99.90
3564;DHT22;1796;52.388;13.096;2023-04-24T07:42:18;22.30;99.90
3564;DHT22;1796;52.388;13.096;2023-04-24T07:44:45;22.00;99.90
3564;DHT22;1796;52.388;13.096;2023-04-24T07:47:13;21.40;99.90
3564;DHT22;1796;52.388;13.096;2023-04-24T07:49:41;21.10;99.90
3564;DHT22;1796;52.388;13.096;2023-04-24T07:52:08;20.90;99.90
3564;DHT22;1796;52.388;13.096;2023-04-24T07:54:35;21.10;99.90
3564;DHT22;1796;52.388;13.096;2023-04-24T07:57:02;21.30;99.90
3564;DHT22;1796;52.388;13.096;2023-04-24T07:59:31;21.10;99.90
3564;DHT22;1796;52.388;13.096;2023-04-24T08:01:58;21.40;99.90
3564;DHT22;1796;52.388;13.096;2023-04-24T08:04:26;21.90;99.90
3564;DHT22;1796;52.388;13.096;2023-04-24T08:06:53;22.10;99.90
3564;DHT22;1796;52.388;13.096;2023-04-24T08:09:20;21.70;99.90
3564;DHT22;1796;52.388;13.096;2023-04-24T08:11:47;21.10;99.90
3564;DHT22;1796;52.388;13.096;2023-04-24T08:14:14;21.30;99.90
3564;DHT22;1796;52.388;13.096;2023-04-24T08:16:42;21.70;99.90
3564;DHT22;1796;52.388;13.096;2023-04-24T08:19:09;21.10;99.90
3564;DHT22;1796;52.388;13.096;2023-04-24T08:21:36;20.50;99.90
3564;DHT22;1796;52.388;13.096;2023-04-24T08:24:03;20.40;99.90
3564;DHT22;1796;52.388;13.096;2023-04-24T08:26:33;20.20;99.90
3564;DHT22;1796;52.388;13.096;2023-04-24T08:29:00;20.20;99.90
3564;DHT22;1796;52.388;13.096;2023-04-24T08:31:27;19.90;99.90
3564;DHT22;1796;52.388;13.096;2023-04-24T08:33:55;19.50;99.90
3564;DHT22;1796;52.388;13.096;2023-04-24T08:36:22;19.40;99.90
3564;DHT22;1796;52.388;13.096;2023-04-24T08:38:49;19.30;99.90
3564;DHT22;1796;52.388;13.096;2023-04-24T08:41:15;19.50;99.90
3564;DHT22;1796;52.388;13.096;2023-04-24T08:43:45;19.10;99.90
3564;DHT22;1796;52.388;13.096;2023-04-24T08:46:13;19.20;99.90
3564;DHT22;1796;52.388;13.096;2023-04-24T08:48:42;19.40;99.90
3564;DHT22;1796;52.388;13.096;2023-04-24T08:51:11;19.40;99.90
3564;DHT22;1796;52.388;13.096;2023-04-24T08:53:38;19.40;99.90
3564;DHT22;1796;52.388;13.096;2023-04-24T08:56:05;19.30;99.90
3564;DHT22;1796;52.388;13.096;2023-04-24T08:58:33;19.20;99.90
3564;DHT22;1796;52.388;13.096;2023-04-24T09:01:00;19.00;99.90
3564;DHT22;1796;52.388;13.096;2023-04-24T09:03:29;19.20;99.90
3564;DHT22;1796;52.388;13.096;2023-04-24T09:05:57;19.10;99.90
3564;DHT22;1796;52.388;13.096;2023-04-24T09:08:26;19.00;99.90
3564;DHT22;1796;52.388;13.096;2023-04-24T09:10:54;19.40;99.90
3564;DHT22;1796;52.388;13.096;2023-04-24T09:13:24;19.40;99.90
3564;DHT22;1796;52.388;13.096;2023-04-24T09:15:51;19.40;99.90
3564;DHT22;1796;52.388;13.096;2023-04-24T09:18:19;19.30;99.90
3564;DHT22;1796;52.388;13.096;2023-04-24T09:21:00;19.10;99.90
3564;DHT22;1796;52.388;13.096;2023-04-24T09:23:30;19.10;99.90
3564;DHT22;1796;52.388;13.096;2023-04-24T09:25:58;19.00;99.90
3564;DHT22;1796;52.388;13.096;2023-04-24T09:28:26;19.10;99.90
3564;DHT22;1796;52.388;13.096;2023-04-24T09:31:05;19.00;99.90
3564;DHT22;1796;52.388;13.096;2023-04-24T09:33:32;19.10;99.90
3564;DHT22;1796;52.388;13.096;2023-04-24T09:36:00;19.20;99.90
3564;DHT22;1796;52.388;13.096;2023-04-24T09:38:34;19.00;99.90
3564;DHT22;1796;52.388;13.096;2023-04-24T09:41:01;19.10;99.90
3564;DHT22;1796;52.388;13.096;2023-04-24T09:43:29;19.10;99.90
3564;DHT22;1796;52.388;13.096;2023-04-24T09:45:57;19.00;99.90
3564;DHT22;1796;52.388;13.096;2023-04-24T09:48:31;19.20;99.90
3564;DHT22;1796;52.388;13.096;2023-04-24T09:50:59;19.20;99.90
3564;DHT22;1796;52.388;13.096;2023-04-24T09:53:27;18.90;99.90
3564;DHT22;1796;52.388;13.096;2023-04-24T09:55:56;19.10;99.90
3564;DHT22;1796;52.388;13.096;2023-04-24T09:58:26;19.20;99.90
3564;DHT22;1796;52.388;13.096;2023-04-24T10:00:56;19.70;99.90
3564;DHT22;1796;52.388;13.096;2023-04-24T10:03:25;19.40;99.90
3564;DHT22;1796;52.388;13.096;2023-04-24T10:05:53;19.20;99.90
3564;DHT22;1796;52.388;13.096;2023-04-24T10:08:21;18.90;99.90
3564;DHT22;1796;52.388;13.096;2023-04-24T10:10:48;18.50;99.90
3564;DHT22;1796;52.388;13.096;2023-04-24T10:13:16;18.20;99.90
3564;DHT22;1796;52.388;13.096;2023-04-24T10:15:44;17.80;99.90
3564;DHT22;1796;52.388;13.096;2023-04-24T10:18:11;17.70;99.90
3564;DHT22;1796;52.388;13.096;2023-04-24T10:20:40;17.70;99.90
3564;DHT22;1796;52.388;13.096;2023-04-24T10:23:07;17.50;99.90
3564;DHT22;1796;52.388;13.096;2023-04-24T10:25:35;17.40;99.90
3564;DHT22;1796;52.388;13.096;2023-04-24T10:28:03;17.30;99.90
3564;DHT22;1796;52.388;13.096;2023-04-24T10:30:32;17.60;99.90
3564;DHT22;1796;52.388;13.096;2023-04-24T10:33:01;17.80;99.90
3564;DHT22;1796;52.388;13.096;2023-04-24T10:35:35;18.60;99.90
3564;DHT22;1796;52.388;13.096;2023-04-24T10:38:06;19.00;99.90
3564;DHT22;1796;52.388;13.096;2023-04-24T10:40:35;19.40;99.90
3564;DHT22;1796;52.388;13.096;2023-04-24T10:43:03;19.50;99.90
3564;DHT22;1796;52.388;13.096;2023-04-24T10:45:33;19.20;99.90
3564;DHT22;1796;52.388;13.096;2023-04-24T10:48:02;19.00;99.90
3564;DHT22;1796;52.388;13.096;2023-04-24T10:50:43;17.90;99.90
3564;DHT22;1796;52.388;13.096;2023-04-24T10:53:15;17.20;99.90
3564;DHT22;1796;52.388;13.096;2023-04-24T10:55:47;16.20;99.90
3564;DHT22;1796;52.388;13.096;2023-04-24T10:58:14;15.20;99.90
3564;DHT22;1796;52.388;13.096;2023-04-24T11:00:44;15.00;99.90
3564;DHT22;1796;52.388;13.096;2023-04-24T11:03:24;14.80;99.90
3564;DHT22;1796;52.388;13.096;2023-04-24T11:05:57;15.00;99.90
3564;DHT22;1796;52.388;13.096;2023-04-24T11:08:27;14.90;99.90
3564;DHT22;1796;52.388;13.096;2023-04-24T11:10:57;14.90;99.90
3564;DHT22;1796;52.388;13.096;2023-04-24T11:13:25;15.00;99.90
3564;DHT22;1796;52.388;13.096;2023-04-24T11:16:16;15.20;99.90
3564;DHT22;1796;52.388;13.096;2023-04-24T11:18:50;15.50;99.90
3564;DHT22;1796;52.388;13.096;2023-04-24T11:21:20;15.70;99.90
3564;DHT22;1796;52.388;13.096;2023-04-24T11:23:48;16.00;99.90
3564;DHT22;1796;52.388;13.096;2023-04-24T11:26:18;16.10;99.90
3564;DHT22;1796;52.388;13.096;2023-04-24T11:28:49;16.20;99.90
3564;DHT22;1796;52.388;13.096;2023-04-24T11:31:38;16.20;99.90
3564;DHT22;1796;52.388;13.096;2023-04-24T11:34:10;16.40;99.90
3564;DHT22;1796;52.388;13.096;2023-04-24T11:36:38;16.50;99.90
3564;DHT22;1796;52.388;13.096;2023-04-24T11:39:06;16.80;99.90
3564;DHT22;1796;52.388;13.096;2023-04-24T11:41:33;17.00;99.90
3564;DHT22;1796;52.388;13.096;2023-04-24T11:44:01;17.10;99.90
3564;DHT22;1796;52.388;13.096;2023-04-24T11:46:29;17.40;99.90
3564;DHT22;1796;52.388;13.096;2023-04-24T11:48:59;17.50;99.90
3564;DHT22;1796;52.388;13.096;2023-04-24T11:51:27;17.90;99.90
3564;DHT22;1796;52.388;13.096;2023-04-24T11:53:54;18.10;99.90
3564;DHT22;1796;52.388;13.096;2023-04-24T11:56:21;18.20;99.90
3564;DHT22;1796;52.388;13.096;2023-04-24T11:58:48;18.40;99.90
3564;DHT22;1796;52.388;13.096;2023-04-24T12:01:15;18.50;99.90
3564;DHT22;1796;52.388;13.096;2023-04-24T12:03:47;18.50;99.90
3564;DHT22;1796;52.388;13.096;2023-04-24T12:06:17;18.60;99.90
3564;DHT22;1796;52.388;13.096;2023-04-24T12:08:46;18.70;99.90
3564;DHT22;1796;52.388;13.096;2023-04-24T12:11:15;18.60;99.90
3564;DHT22;1796;52.388;13.096;2023-04-24T12:13:43;18.60;99.90
3564;DHT22;1796;52.388;13.096;2023-04-24T12:16:10;18.80;99.90
3564;DHT22;1796;52.388;13.096;2023-04-24T12:20:23;18.50;99.90
3564;DHT22;1796;52.388;13.096;2023-04-24T12:26:08;18.40;99.90
3564;DHT22;1796;52.388;13.096;2023-04-24T12:32:16;18.50;99.90
3564;DHT22;1796;52.388;13.096;2023-04-24T12:34:43;18.30;99.90
3564;DHT22;1796;52.388;13.096;2023-04-24T12:37:11;18.30;99.90
3564;DHT22;1796;52.388;13.096;2023-04-24T12:39:37;18.50;99.90
3564;DHT22;1796;52.388;13.096;2023-04-24T12:42:06;18.50;99.90
3564;DHT22;1796;52.388;13.096;2023-04-24T12:44:34;18.50;99.90
3564;DHT22;1796;52.388;13.096;2023-04-24T12:47:02;18.70;99.90
3564;DHT22;1796;52.388;13.096;2023-04-24T12:49:30;19.00;99.90
3564;DHT22;1796;52.388;13.096;2023-04-24T12:51:57;18.90;99.90
3564;DHT22;1796;52.388;13.096;2023-04-24T12:54:24;19.00;99.90
3564;DHT22;1796;52.388;13.096;2023-04-24T12:56:51;18.80;99.90
3564;DHT22;1796;52.388;13.096;2023-04-24T12:59:19;18.70;99.90
3564;DHT22;1796;52.388;13.096;2023-04-24T13:01:46;18.70;99.90
3564;DHT22;1796;52.388;13.096;2023-04-24T13:04:12;18.70;99.90
3564;DHT22;1796;52.388;13.096;2023-04-24T13:06:39;18.80;99.90
3564;DHT22;1796;52.388;13.096;2023-04-24T13:09:06;18.80;99.90
3564;DHT22;1796;52.388;13.096;2023-04-24T13:11:33;18.60;99.90
3564;DHT22;1796;52.388;13.096;2023-04-24T13:14:01;18.30;99.90
3564;DHT22;1796;52.388;13.096;2023-04-24T13:16:29;18.20;99.90
3564;DHT22;1796;52.388;13.096;2023-04-24T13:18:56;18.20;99.90
3564;DHT22;1796;52.388;13.096;2023-04-24T13:21:23;18.50;99.90
3564;DHT22;1796;52.388;13.096;2023-04-24T13:23:49;18.70;99.90
3564;DHT22;1796;52.388;13.096;2023-04-24T13:26:17;18.90;99.90
3564;DHT22;1796;52.388;13.096;2023-04-24T13:28:44;18.90;99.90
3564;DHT22;1796;52.388;13.096;2023-04-24T13:31:11;18.80;99.90
3564;DHT22;1796;52.388;13.096;2023-04-24T13:33:40;18.80;99.90
3564;DHT22;1796;52.388;13.096;2023-04-24T13:36:07;18.70;99.90
3564;DHT22;1796;52.388;13.096;2023-04-24T13:38:34;18.80;99.90
3564;DHT22;1796;52.388;13.096;2023-04-24T13:41:01;19.20;99.90
3564;DHT22;1796;52.388;13.096;2023-04-24T13:43:28;19.40;99.90
3564;DHT22;1796;52.388;13.096;2023-04-24T13:45:55;19.40;99.90
3564;DHT22;1796;52.388;13.096;2023-04-24T13:48:22;19.40;99.90
3564;DHT22;1796;52.388;13.096;2023-04-24T13:50:50;19.30;99.90
3564;DHT22;1796;52.388;13.096;2023-04-24T13:53:17;19.40;99.90
3564;DHT22;1796;52.388;13.096;2023-04-24T13:55:44;19.40;99.90
3564;DHT22;1796;52.388;13.096;2023-04-24T13:58:11;19.20;99.90
3564;DHT22;1796;52.388;13.096;2023-04-24T14:00:37;19.30;99.90
3564;DHT22;1796;52.388;13.096;2023-04-24T14:03:05;19.10;99.90
3564;DHT22;1796;52.388;13.096;2023-04-24T14:05:32;18.90;99.90
3564;DHT22;1796;52.388;13.096;2023-04-24T14:08:00;18.80;99.90
3564;DHT22;1796;52.388;13.096;2023-04-24T14:10:27;18.80;99.90
3564;DHT22;1796;52.388;13.096;2023-04-24T14:12:54;18.60;99.90
3564;DHT22;1796;52.388;13.096;2023-04-24T14:15:21;18.50;99.90
3564;DHT22;1796;52.388;13.096;2023-04-24T14:17:48;18.40;99.90
3564;DHT22;1796;52.388;13.096;2023-04-24T14:20:15;18.40;99.90
3564;DHT22;1796;52.388;13.096;2023-04-24T14:22:42;18.40;99.90
3564;DHT22;1796;52.388;13.096;2023-04-24T14:25:10;18.40;99.90
3564;DHT22;1796;52.388;13.096;2023-04-24T14:27:37;18.20;99.90
3564;DHT22;1796;52.388;13.096;2023-04-24T14:30:06;18.10;99.90
3564;DHT22;1796;52.388;13.096;2023-04-24T14:32:34;18.10;99.90
3564;DHT22;1796;52.388;13.096;2023-04-24T14:35:01;18.10;99.90
3564;DHT22;1796;52.388;13.096;2023-04-24T14:37:28;17.90;99.90
3564;DHT22;1796;52.388;13.096;2023-04-24T14:39:55;18.10;99.90
3564;DHT22;1796;52.388;13.096;2023-04-24T14:42:23;18.10;99.90
3564;DHT22;1796;52.388;13.096;2023-04-24T14:44:51;18.20;99.90
3564;DHT22;1796;52.388;13.096;2023-04-24T14:47:18;18.20;99.90
3564;DHT22;1796;52.388;13.096;2023-04-24T14:49:46;18.10;99.90
3564;DHT22;1796;52.388;13.096;2023-04-24T14:52:13;17.80;99.90
3564;DHT22;1796;52.388;13.096;2023-04-24T14:54:41;17.70;99.90
3564;DHT22;1796;52.388;13.096;2023-04-24T14:57:08;17.50;99.90
3564;DHT22;1796;52.388;13.096;2023-04-24T14:59:37;17.40;99.90
3564;DHT22;1796;52.388;13.096;2023-04-24T15:02:05;17.40;99.90
3564;DHT22;1796;52.388;13.096;2023-04-24T15:04:32;17.50;99.90
3564;DHT22;1796;52.388;13.096;2023-04-24T15:06:59;17.50;99.90
3564;DHT22;1796;52.388;13.096;2023-04-24T15:09:26;17.30;99.90
3564;DHT22;1796;52.388;13.096;2023-04-24T15:11:53;17.20;99.90
3564;DHT22;1796;52.388;13.096;2023-04-24T15:14:20;17.10;99.90
3564;DHT22;1796;52.388;13.096;2023-04-24T15:16:49;16.90;99.90
3564;DHT22;1796;52.388;13.096;2023-04-24T15:19:15;16.70;99.90
3564;DHT22;1796;52.388;13.096;2023-04-24T15:21:42;16.70;99.90
3564;DHT22;1796;52.388;13.096;2023-04-24T15:24:10;16.70;99.90
3564;DHT22;1796;52.388;13.096;2023-04-24T15:26:36;16.80;99.90
3564;DHT22;1796;52.388;13.096;2023-04-24T15:29:03;17.00;99.90
3564;DHT22;1796;52.388;13.096;2023-04-24T15:31:30;17.20;99.90
3564;DHT22;1796;52.388;13.096;2023-04-24T15:33:59;17.40;99.90
3564;DHT22;1796;52.388;13.096;2023-04-24T15:36:25;17.50;99.90
3564;DHT22;1796;52.388;13.096;2023-04-24T15:38:53;17.60;99.90
3564;DHT22;1796;52.388;13.096;2023-04-24T15:41:19;17.80;99.90
3564;DHT22;1796;52.388;13.096;2023-04-24T15:43:46;17.80;99.90
3564;DHT22;1796;52.388;13.096;2023-04-24T15:46:14;17.90;99.90
3564;DHT22;1796;52.388;13.096;2023-04-24T15:48:42;17.90;99.90
3564;DHT22;1796;52.388;13.096;2023-04-24T15:51:10;17.90;99.90
3564;DHT22;1796;52.388;13.096;2023-04-24T15:53:37;17.70;99.90
3564;DHT22;1796;52.388;13.096;2023-04-24T15:56:04;17.60;99.90
3564;DHT22;1796;52.388;13.096;2023-04-24T15:58:31;17.60;99.90